Time;durP1;ratioP1;P1;durP2;ratioP2;P2;SDS_P1;SDS_P2;PMS_P1;PMS_P2;Temp;Humidity;BMP_temperature;BMP_pressure;BME280_temperature;BME280_humidity;BME280_pressure;Samples;Min_cycle;Max_cycle;Signal;HPM_P1;HPM_P2
2023/06/29 00:06:36;;;;;;;2.80;1.70;;;;;;;14.63;79.29;97063.50;102095;1295;648684;-85
2023/06/29 00:09:07;;;;;;;2.30;2.00;;;;;;;14.50;79.50;97063.11;104343;1272;96811;-85
2023/06/29 00:11:34;;;;;;;3.50;2.10;;;;;;;14.37;79.75;97069.80;104318;1272;96889;-87
2023/06/29 00:14:02;;;;;;;2.30;1.90;;;;;;;14.30;80.04;97072.96;104306;1270;98763;-87
2023/06/29 00:16:31;;;;;;;2.60;2.00;;;;;;;14.21;80.05;97070.02;104190;1274;100355;-86
2023/06/29 00:19:26;;;;;;;2.70;2.20;;;;;;;14.11;80.22;97070.10;104184;1273;98792;-88
2023/06/29 00:21:57;;;;;;;3.60;2.10;;;;;;;14.00;80.43;97073.20;104076;1274;96003;-88
2023/06/29 00:24:28;;;;;;;2.70;2.50;;;;;;;13.93;80.60;97070.46;104594;1260;95965;-87
2023/06/29 00:26:56;;;;;;;2.30;2.10;;;;;;;13.91;80.73;97071.75;104453;1268;97560;-87
2023/06/29 00:29:24;;;;;;;3.10;2.70;;;;;;;13.88;80.81;97071.27;104836;1260;100299;-87
2023/06/29 00:31:51;;;;;;;2.80;2.60;;;;;;;13.84;80.86;97072.56;104782;1263;99252;-85
2023/06/29 00:34:19;;;;;;;2.70;2.50;;;;;;;13.82;81.03;97070.94;104920;1262;95940;-86
2023/06/29 00:36:47;;;;;;;3.90;2.80;;;;;;;13.81;81.20;97071.67;104771;1262;96903;-85
2023/06/29 00:39:15;;;;;;;4.40;3.10;;;;;;;13.79;81.25;97070.66;104761;1260;100102;-86
2023/06/29 00:41:42;;;;;;;3.90;3.20;;;;;;;13.78;81.30;97074.19;104702;1263;102549;-85
2023/06/29 00:44:10;;;;;;;3.70;3.30;;;;;;;13.79;81.58;97072.21;104882;1261;99190;-84
2023/06/29 00:46:38;;;;;;;4.00;3.60;;;;;;;13.78;81.49;97072.31;105169;1260;95820;-86
2023/06/29 00:49:05;;;;;;;5.20;4.30;;;;;;;13.76;81.50;97065.22;105112;1257;95812;-87
2023/06/29 00:51:33;;;;;;;4.90;4.40;;;;;;;13.74;81.65;97069.31;104891;1257;99429;-86
2023/06/29 00:54:01;;;;;;;4.90;3.80;;;;;;;13.73;81.71;97069.63;104991;1257;100364;-85
2023/06/29 00:56:31;;;;;;;5.10;4.30;;;;;;;13.73;81.84;97069.29;104968;1262;99188;-88
2023/06/29 00:58:59;;;;;;;5.50;4.90;;;;;;;13.73;81.79;97071.89;104739;1264;95935;-87
2023/06/29 01:01:30;;;;;;;7.60;5.20;;;;;;;13.67;81.83;97075.61;104766;1261;95950;-86
2023/06/29 01:03:57;;;;;;;6.60;5.00;;;;;;;13.64;82.12;97079.84;104817;1257;100023;-86
2023/06/29 01:06:30;;;;;;;5.90;4.80;;;;;;;13.64;82.45;97079.35;104831;1262;100389;-86
2023/06/29 01:09:05;;;;;;;5.50;3.90;;;;;;;13.67;82.37;97076.02;104533;1265;98726;-87
2023/06/29 01:11:34;;;;;;;4.40;3.70;;;;;;;13.69;82.42;97069.90;104863;1271;96246;-86
2023/06/29 01:14:06;;;;;;;4.70;4.30;;;;;;;13.69;82.46;97065.73;105095;1259;97735;-86
2023/06/29 01:16:36;;;;;;;5.80;4.10;;;;;;;13.70;82.62;97070.10;104851;1257;99568;-86
2023/06/29 01:19:07;;;;;;;4.60;4.20;;;;;;;13.70;82.73;97069.39;104687;1257;100217;-87
2023/06/29 01:21:42;;;;;;;4.60;4.20;;;;;;;13.70;82.85;97067.60;104684;1257;98885;-87
2023/06/29 01:24:15;;;;;;;4.70;4.30;;;;;;;13.68;83.02;97070.42;104814;1263;95967;-86
2023/06/29 01:26:49;;;;;;;;;;;;;;;13.69;82.99;97070.08;104722;1265;96024;-87
2023/06/29 01:29:24;;;;;;;4.90;4.40;;;;;;;13.68;83.27;97064.63;104799;1273;100012;-87
2023/06/29 01:32:00;;;;;;;5.70;4.50;;;;;;;13.69;83.40;97062.64;104814;1263;100428;-86
2023/06/29 01:34:32;;;;;;;6.20;5.60;;;;;;;13.68;83.25;97063.66;104670;1280;98544;-86
2023/06/29 01:37:03;;;;;;;;;;;;;;;13.68;83.24;97063.91;104854;1261;95822;-87
2023/06/29 01:39:38;;;;;;;7.70;6.30;;;;;;;13.68;83.52;97065.59;104880;1257;96801;-84
2023/06/29 01:42:07;;;;;;;7.90;7.10;;;;;;;13.69;83.51;97065.56;104744;1265;102060;-84
2023/06/29 01:44:35;;;;;;;8.80;7.90;;;;;;;13.71;83.53;97064.58;104790;1263;100084;-87
2023/06/29 01:47:03;;;;;;;9.40;8.40;;;;;;;13.72;83.67;97066.02;104789;1280;99031;-88
2023/06/29 01:49:30;;;;;;;9.10;8.20;;;;;;;13.73;83.69;97066.54;104636;1263;95954;-87
2023/06/29 01:51:58;;;;;;;8.50;7.60;;;;;;;13.76;83.71;97067.06;104777;1264;96297;-86
2023/06/29 01:54:26;;;;;;;8.20;7.40;;;;;;;13.79;83.57;97065.70;104677;1260;109374;-86
2023/06/29 01:56:54;;;;;;;9.20;7.10;;;;;;;13.81;83.55;97066.70;104640;1263;100202;-88
2023/06/29 01:59:21;;;;;;;8.60;7.50;;;;;;;13.84;83.70;97060.73;104679;1282;99056;-86
2023/06/29 02:01:49;;;;;;;8.70;7.20;;;;;;;13.87;83.69;97065.67;104717;1263;96020;-86
2023/06/29 02:04:17;;;;;;;8.40;7.40;;;;;;;13.89;83.52;97070.09;104836;1260;96843;-87
2023/06/29 02:48:00;;;;;;;5.60;5.10;;;;;;;14.88;82.64;97080.06;103896;1275;642586;-71
2023/06/29 04:33:46;;;;;;;9.90;8.50;;;;;;;14.66;83.45;97144.66;105363;1264;95278;-69
2023/06/29 04:36:13;;;;;;;10.70;9.60;;;;;;;14.67;83.47;97150.29;106678;1252;96010;-70
2023/06/29 04:38:39;;;;;;;10.90;9.80;;;;;;;14.69;83.50;97152.72;106893;1249;96222;-71
2023/06/29 04:41:06;;;;;;;10.70;9.60;;;;;;;14.71;83.55;97152.05;106805;1262;95910;-71
2023/06/29 04:43:33;;;;;;;11.80;9.80;;;;;;;14.72;83.56;97148.70;106821;1252;95917;-71
2023/06/29 04:46:00;;;;;;;10.50;9.40;;;;;;;14.75;83.74;97150.10;106299;1256;96072;-74
2023/06/29 04:48:32;;;;;;;11.20;10.00;;;;;;;14.78;83.88;97154.52;106421;1255;99248;-73
2023/06/29 04:51:04;;;;;;;14.30;10.70;;;;;;;14.82;83.74;97153.65;107155;1248;100199;-73
2023/06/29 04:53:34;;;;;;;13.70;10.90;;;;;;;14.85;83.69;97159.63;107137;1247;98563;-73
2023/06/29 04:56:01;;;;;;;11.20;10.10;;;;;;;14.88;83.60;97163.69;107463;1245;95968;-73
2023/06/29 04:58:28;;;;;;;13.30;10.40;;;;;;;14.89;83.76;97163.08;107096;1247;95839;-73
2023/06/29 05:00:54;;;;;;;11.90;10.60;;;;;;;14.92;83.68;97163.72;107154;1247;95938;-73
2023/06/29 05:03:21;;;;;;;13.00;11.00;;;;;;;14.94;83.69;97161.39;107174;1257;95980;-74
2023/06/29 05:05:47;;;;;;;13.90;10.80;;;;;;;14.97;83.72;97164.31;107103;1249;97058;-73
2023/06/29 05:08:14;;;;;;;12.60;11.30;;;;;;;15.02;83.68;97165.79;107139;1243;96155;-72
2023/06/29 05:10:41;;;;;;;11.60;10.50;;;;;;;15.05;83.58;97161.04;107150;1247;97305;-73
2023/06/29 05:13:07;;;;;;;17.80;11.30;;;;;;;15.08;83.38;97159.30;107115;1258;96543;-73
2023/06/29 05:15:34;;;;;;;12.50;11.00;;;;;;;15.10;83.07;97160.98;107342;1256;96032;-72
2023/06/29 05:18:00;;;;;;;12.40;11.20;;;;;;;15.11;83.06;97160.36;107392;1240;96001;-73
2023/06/29 05:20:26;;;;;;;12.10;10.90;;;;;;;15.14;83.10;97163.45;107471;1252;96314;-73
2023/06/29 05:22:53;;;;;;;11.90;10.70;;;;;;;15.17;83.04;97168.66;107591;1244;96030;-72
2023/06/29 05:59:15;;;;;;;11.50;10.20;;;;;;;16.00;81.77;97181.14;105410;1262;98189;-69
2023/06/29 06:01:41;;;;;;;13.90;11.10;;;;;;;15.95;81.93;97179.22;106643;1254;95973;-71
2023/06/29 06:04:07;;;;;;;13.40;11.30;;;;;;;15.91;81.94;97179.55;107609;1243;95921;-71
2023/06/29 06:06:34;;;;;;;12.80;10.90;;;;;;;15.89;82.20;97178.21;107211;1247;96094;-71
2023/06/29 06:09:00;;;;;;;12.10;10.80;;;;;;;15.93;82.10;97177.67;106925;1247;98429;-72
2023/06/29 06:11:27;;;;;;;14.20;12.20;;;;;;;15.96;81.73;97181.08;106985;1256;96162;-71
2023/06/29 06:13:53;;;;;;;12.80;11.50;;;;;;;15.99;81.87;97182.21;107014;1258;96769;-71
2023/06/29 06:16:21;;;;;;;16.10;12.30;;;;;;;16.04;81.92;97180.34;107294;1247;96003;-77
2023/06/29 06:18:47;;;;;;;10.80;9.80;;;;;;;16.09;81.58;97186.34;107085;1245;100986;-77
2023/06/29 06:21:13;;;;;;;10.70;9.60;;;;;;;16.13;80.88;97184.81;106948;1244;95941;-76
2023/06/29 06:23:40;;;;;;;12.60;10.40;;;;;;;16.15;80.70;97183.48;106980;1247;96024;-76
2023/06/29 06:26:07;;;;;;;14.90;10.20;;;;;;;16.17;80.83;97188.90;106554;1261;95888;-76
2023/06/29 06:28:33;;;;;;;11.40;10.20;;;;;;;16.17;80.96;97190.48;106526;1253;99875;-78
2023/06/29 06:31:00;;;;;;;11.10;10.00;;;;;;;16.17;80.88;97191.90;106629;1263;96700;-69
2023/06/29 06:33:30;;;;;;;12.30;10.10;;;;;;;16.18;81.07;97191.52;106697;1254;96084;-69
2023/06/29 06:35:57;;;;;;;14.80;10.00;;;;;;;16.21;81.04;97189.60;106680;1249;95947;-70
2023/06/29 06:38:24;;;;;;;11.30;10.20;;;;;;;16.23;80.86;97191.08;106958;1248;96110;-69
2023/06/29 06:40:51;;;;;;;10.20;9.20;;;;;;;16.26;80.65;97194.61;107458;1251;96174;-69
2023/06/29 06:43:18;;;;;;;10.10;8.50;;;;;;;16.29;80.56;97192.64;107126;1245;96879;-69
2023/06/29 06:45:44;;;;;;;12.10;9.50;;;;;;;16.32;80.41;97192.40;106867;1248;97142;-69
2023/06/29 06:48:11;;;;;;;12.10;9.70;;;;;;;16.35;80.21;97189.44;106799;1252;95948;-70
2023/06/29 06:50:37;;;;;;;11.50;10.30;;;;;;;16.40;80.33;97192.63;106586;1251;100602;-70
2023/06/29 06:53:04;;;;;;;10.50;9.50;;;;;;;16.42;80.39;97198.09;106577;1260;95936;-70
2023/06/29 06:55:30;;;;;;;10.30;9.00;;;;;;;16.46;80.35;97195.35;106616;1262;95951;-70
2023/06/29 06:57:56;;;;;;;11.20;9.10;;;;;;;16.47;80.39;97192.81;106759;1260;95923;-70
2023/06/29 07:00:23;;;;;;;11.60;10.40;;;;;;;16.44;80.51;97194.08;106694;1250;100781;-70
2023/06/29 07:02:49;;;;;;;12.30;10.00;;;;;;;16.45;80.24;97198.65;106889;1261;96812;-80
2023/06/29 07:05:16;;;;;;;11.40;10.20;;;;;;;16.51;80.03;97190.09;106754;1250;96230;-81
2023/06/29 07:07:42;;;;;;;10.40;9.30;;;;;;;16.64;80.16;97185.08;106872;1261;95843;-80
2023/06/29 07:10:09;;;;;;;11.30;10.00;;;;;;;16.73;80.01;97183.67;106747;1251;99814;-81
2023/06/29 07:12:36;;;;;;;10.10;9.10;;;;;;;16.82;79.75;97182.08;106768;1261;95961;-85
2023/06/29 07:15:03;;;;;;;10.30;9.20;;;;;;;16.89;79.60;97185.81;106935;1258;96844;-81
2023/06/29 07:17:30;;;;;;;10.90;9.10;;;;;;;16.98;79.48;97183.23;106942;1250;96512;-82
2023/06/29 07:19:57;;;;;;;10.90;9.50;;;;;;;17.05;78.76;97184.44;107472;1242;96880;-83
2023/06/29 07:22:23;;;;;;;10.30;9.00;;;;;;;17.11;78.37;97183.90;107635;1238;95991;-81
2023/06/29 07:24:49;;;;;;;9.50;8.20;;;;;;;17.16;78.16;97177.83;107488;1250;99900;-82
2023/06/29 07:27:16;;;;;;;10.40;9.10;;;;;;;17.20;78.08;97177.00;107563;1239;95871;-83
2023/06/29 07:29:44;;;;;;;10.10;8.40;;;;;;;17.23;77.97;97178.77;107525;1239;96022;-88
2023/06/29 07:32:11;;;;;;;10.90;9.20;;;;;;;17.23;77.88;97178.56;107654;1238;95831;-81
2023/06/29 07:34:37;;;;;;;11.20;9.60;;;;;;;17.25;77.83;97176.66;107566;1247;95907;-80
2023/06/29 07:37:03;;;;;;;10.10;8.30;;;;;;;17.27;77.54;97179.41;107194;1247;95931;-80
2023/06/29 07:39:30;;;;;;;8.70;7.80;;;;;;;17.30;77.47;97179.59;107276;1241;96879;-79
2023/06/29 07:41:56;;;;;;;11.80;8.50;;;;;;;17.29;76.90;97182.74;107260;1257;96136;-82
2023/06/29 07:44:23;;;;;;;10.70;8.10;;;;;;;17.31;76.58;97185.21;107249;1252;95894;-82
2023/06/29 07:46:49;;;;;;;11.10;8.80;;;;;;;17.33;76.65;97189.66;107204;1255;95950;-88
2023/06/29 07:49:16;;;;;;;12.10;9.10;;;;;;;17.35;76.61;97190.34;107309;1245;96517;-91
2023/06/29 07:51:42;;;;;;;11.30;9.80;;;;;;;17.33;76.73;97191.79;107373;1252;97194;-88
2023/06/29 07:54:09;;;;;;;14.70;8.90;;;;;;;17.28;76.65;97192.45;107405;1244;96550;-89
2023/06/29 07:56:35;;;;;;;11.30;8.20;;;;;;;17.31;76.71;97190.62;107363;1245;95963;-89
2023/06/29 07:59:02;;;;;;;9.10;8.20;;;;;;;17.36;76.32;97192.48;107683;1241;96011;-89
2023/06/29 08:01:28;;;;;;;8.70;7.70;;;;;;;17.40;75.98;97188.36;107410;1243;99656;-86
2023/06/29 08:03:54;;;;;;;10.80;7.50;;;;;;;17.54;75.93;97191.64;107379;1240;97288;-90
2023/06/29 08:06:21;;;;;;;11.80;7.90;;;;;;;17.77;75.56;97191.07;107388;1254;95921;-87
2023/06/29 08:08:50;;;;;;;11.10;7.70;;;;;;;17.94;75.16;97188.73;107473;1238;96966;-88
2023/06/29 08:11:16;;;;;;;12.60;7.70;;;;;;;18.00;74.62;97191.61;107825;1241;100823;-87
2023/06/29 08:13:43;;;;;;;9.60;7.40;;;;;;;18.03;74.46;97195.83;107753;1243;95998;-86
2023/06/29 08:16:09;;;;;;;10.30;6.60;;;;;;;18.03;74.20;97191.20;107740;1252;95880;-88
2023/06/29 08:18:35;;;;;;;9.90;6.70;;;;;;;18.04;74.04;97191.30;107959;1236;96069;-86
2023/06/29 08:21:02;;;;;;;7.20;6.40;;;;;;;18.04;73.84;97192.67;107751;1241;99333;-86
2023/06/29 08:23:32;;;;;;;6.90;6.20;;;;;;;18.06;73.40;97187.07;107768;1240;96140;-84
2023/06/29 08:25:58;;;;;;;7.60;6.10;;;;;;;18.12;73.04;97189.66;107966;1252;98883;-85
2023/06/29 08:28:25;;;;;;;7.70;6.50;;;;;;;18.19;73.13;97193.59;107721;1249;96969;-86
2023/06/29 08:30:51;;;;;;;8.40;6.50;;;;;;;18.25;73.00;97198.10;107934;1241;97254;-87
2023/06/29 08:33:18;;;;;;;8.60;6.70;;;;;;;18.35;73.32;97197.71;107664;1238;96488;-87
2023/06/29 08:35:44;;;;;;;8.60;7.20;;;;;;;18.58;73.36;97197.55;107790;1251;99849;-87
2023/06/29 08:38:11;;;;;;;8.10;6.50;;;;;;;18.78;72.54;97195.62;107716;1241;96108;-87
2023/06/29 08:40:38;;;;;;;8.10;6.00;;;;;;;18.87;71.84;97197.06;107994;1241;97123;-85
2023/06/29 08:43:05;;;;;;;6.30;5.70;;;;;;;18.88;71.43;97197.29;108194;1238;95907;-85
2023/06/29 08:45:31;;;;;;;5.90;5.30;;;;;;;18.85;71.08;97197.66;107974;1238;96288;-88
2023/06/29 08:48:00;;;;;;;7.10;5.40;;;;;;;19.10;71.26;97197.23;107781;1240;96766;-88
2023/06/29 08:50:27;;;;;;;7.70;5.70;;;;;;;19.75;70.80;97191.05;107613;1244;96286;-89
2023/06/29 08:52:55;;;;;;;6.40;5.40;;;;;;;20.43;70.14;97185.19;107560;1235;96013;-90
2023/06/29 08:55:23;;;;;;;6.10;5.50;;;;;;;21.08;69.45;97184.23;107921;1239;100415;-87
2023/06/29 08:57:51;;;;;;;6.30;5.70;;;;;;;21.71;68.56;97183.72;107958;1250;98296;-84
2023/06/29 09:00:18;;;;;;;7.00;5.60;;;;;;;22.06;67.22;97189.20;108138;1246;96782;-86
2023/06/29 09:02:45;;;;;;;8.10;6.00;;;;;;;22.09;66.21;97190.17;107652;1243;96023;-87
2023/06/29 09:05:13;;;;;;;6.30;5.70;;;;;;;22.32;66.22;97185.84;107959;1238;99876;-84
2023/06/29 09:07:41;;;;;;;5.80;5.20;;;;;;;22.79;65.54;97184.59;107585;1243;101627;-83
2023/06/29 09:10:11;;;;;;;6.30;5.30;;;;;;;23.36;64.83;97183.77;107579;1243;95924;-85
2023/06/29 09:12:38;;;;;;;7.10;5.00;;;;;;;23.86;63.57;97177.73;108301;1235;96082;-86
2023/06/29 09:15:10;;;;;;;5.70;5.10;;;;;;;24.16;63.01;97184.47;108133;1247;96022;-86
2023/06/29 09:17:36;;;;;;;6.70;4.80;;;;;;;24.17;62.43;97179.67;108163;1235;100424;-86
2023/06/29 09:20:13;;;;;;;7.90;4.70;;;;;;;24.35;61.85;97178.66;108213;1235;96762;-89
2023/06/29 09:22:40;;;;;;;5.60;5.10;;;;;;;24.46;61.36;97179.45;107566;1244;98517;-85
2023/06/29 09:25:07;;;;;;;5.90;5.10;;;;;;;24.66;60.39;97184.34;107674;1238;96597;-90
2023/06/29 09:27:34;;;;;;;5.50;4.60;;;;;;;24.52;60.15;97177.79;107584;1254;96779;-88
2023/06/29 09:30:00;;;;;;;5.70;5.20;;;;;;;24.45;60.44;97182.48;107941;1238;95893;-85
2023/06/29 09:32:29;;;;;;;5.90;5.30;;;;;;;24.30;59.54;97182.42;107933;1242;96733;-71
2023/06/29 09:35:04;;;;;;;6.70;5.30;;;;;;;24.17;58.98;97183.48;107383;1238;96254;-70
2023/06/29 09:37:31;;;;;;;6.20;5.10;;;;;;;23.95;58.69;97183.36;107628;1243;96120;-70
2023/06/29 09:39:57;;;;;;;6.70;5.30;;;;;;;23.73;58.34;97180.44;107533;1247;97382;-71
2023/06/29 09:42:24;;;;;;;7.40;5.90;;;;;;;23.49;58.07;97184.73;107331;1247;95807;-68
2023/06/29 09:44:50;;;;;;;5.50;5.00;;;;;;;23.24;58.30;97181.27;107209;1257;96117;-68
2023/06/29 09:47:18;;;;;;;6.20;5.60;;;;;;;23.50;58.87;97180.30;107511;1241;96140;-69
2023/06/29 09:49:47;;;;;;;15.80;5.40;;;;;;;23.89;59.45;97180.03;107174;1247;97391;-67
2023/06/29 09:52:15;;;;;;;5.60;5.10;;;;;;;24.32;57.92;97174.15;106644;1248;107751;-69
2023/06/29 09:54:42;;;;;;;7.60;5.50;;;;;;;24.62;57.75;97170.70;106991;1244;101415;-69
2023/06/29 09:57:11;;;;;;;6.10;5.40;;;;;;;24.74;56.98;97169.02;106861;1251;97552;-69
2023/06/29 09:59:44;;;;;;;6.70;5.30;;;;;;;24.87;57.00;97165.64;107047;1248;96892;-69
2023/06/29 10:02:12;;;;;;;6.50;5.60;;;;;;;25.18;57.14;97162.66;106587;1248;97148;-82
2023/06/29 10:04:40;;;;;;;5.80;5.20;;;;;;;25.48;56.80;97165.16;106590;1260;100881;-81
2023/06/29 10:07:16;;;;;;;5.40;4.90;;;;;;;25.58;55.85;97164.33;106482;1253;101401;-81
2023/06/29 10:09:47;;;;;;;5.70;5.00;;;;;;;25.50;54.66;97164.77;106796;1251;100056;-82
2023/06/29 10:12:14;;;;;;;6.20;5.10;;;;;;;25.49;55.16;97163.58;107018;1244;97487;-78
2023/06/29 10:14:45;;;;;;;7.20;5.70;;;;;;;25.54;55.10;97162.09;106962;1247;96673;-80
2023/06/29 10:17:26;;;;;;;7.50;5.30;;;;;;;25.27;54.03;97163.33;107147;1244;102092;-79
2023/06/29 10:19:55;;;;;;;6.00;5.40;;;;;;;25.12;54.05;97163.02;107126;1244;101480;-82
2023/06/29 10:22:22;;;;;;;6.10;5.00;;;;;;;24.99;54.13;97165.02;107172;1247;99693;-79
2023/06/29 10:24:54;;;;;;;6.50;5.70;;;;;;;24.99;54.12;97163.42;107088;1243;96764;-78
2023/06/29 10:27:23;;;;;;;6.60;5.70;;;;;;;24.95;53.82;97162.02;107122;1245;97033;-78
2023/06/29 10:29:50;;;;;;;7.20;5.40;;;;;;;25.05;53.85;97165.60;107603;1246;102173;-78
2023/06/29 10:32:30;;;;;;;8.20;6.10;;;;;;;25.36;53.68;97169.48;108056;1238;96683;-86
2023/06/29 10:35:05;;;;;;;9.90;6.50;;;;;;;25.44;52.96;97165.98;108032;1235;100037;-84
2023/06/29 10:37:36;;;;;;;6.70;6.10;;;;;;;25.26;52.80;97163.35;107460;1244;96741;-85
2023/06/29 10:40:13;;;;;;;6.90;6.10;;;;;;;25.14;52.40;97163.92;108102;1235;96998;-86
2023/06/29 10:42:39;;;;;;;7.80;6.10;;;;;;;25.12;53.01;97162.64;107614;1235;102107;-85
2023/06/29 10:45:26;;;;;;;8.30;6.40;;;;;;;25.17;52.90;97159.98;107910;1238;96526;-80
2023/06/29 10:47:58;;;;;;;6.80;6.20;;;;;;;25.06;52.18;97151.95;108121;1238;108027;-82
2023/06/29 10:50:29;;;;;;;6.50;5.90;;;;;;;24.97;52.15;97147.79;107905;1238;96675;-82
2023/06/29 10:52:59;;;;;;;6.50;5.90;;;;;;;25.12;52.75;97146.00;108358;1235;96974;-82
2023/06/29 10:55:29;;;;;;;6.20;5.60;;;;;;;25.30;52.79;97144.59;108011;1238;102105;-83
2023/06/29 10:57:59;;;;;;;6.10;5.50;;;;;;;25.48;52.58;97146.46;108183;1247;100283;-84
2023/06/29 11:00:28;;;;;;;8.30;6.20;;;;;;;25.65;52.45;97144.86;107920;1238;99882;-81
2023/06/29 11:02:55;;;;;;;6.50;5.70;;;;;;;25.76;52.57;97145.98;108130;1238;96451;-78
2023/06/29 11:05:22;;;;;;;7.80;6.10;;;;;;;25.87;52.30;97142.70;107632;1249;97537;-77
2023/06/29 11:07:53;;;;;;;6.60;6.00;;;;;;;26.08;51.93;97142.98;107800;1236;96967;-77
2023/06/29 11:10:21;;;;;;;6.30;5.70;;;;;;;26.30;51.81;97141.52;108025;1240;100267;-77
2023/06/29 11:12:54;;;;;;;8.10;5.80;;;;;;;26.51;51.24;97141.14;107641;1246;98914;-77
2023/06/29 11:15:21;;;;;;;7.90;5.30;;;;;;;26.70;50.39;97144.13;108139;1245;97697;-78
2023/06/29 11:17:52;;;;;;;6.20;5.50;;;;;;;26.85;50.11;97140.00;107730;1245;96758;-78
2023/06/29 11:20:21;;;;;;;6.80;6.10;;;;;;;26.97;50.39;97131.02;107534;1244;101276;-79
2023/06/29 11:22:48;;;;;;;6.50;5.80;;;;;;;27.07;50.01;97133.09;107929;1238;101271;-78
2023/06/29 11:25:16;;;;;;;11.20;6.20;;;;;;;27.24;49.77;97132.27;108005;1238;100055;-79
2023/06/29 11:27:44;;;;;;;6.80;5.50;;;;;;;27.41;49.09;97134.90;107958;1235;97671;-78
2023/06/29 11:30:11;;;;;;;6.70;5.60;;;;;;;27.45;48.53;97133.85;107656;1242;97289;-78
2023/06/29 11:32:39;;;;;;;6.30;5.60;;;;;;;27.52;48.28;97135.59;107591;1234;101236;-84
2023/06/29 11:35:10;;;;;;;6.00;5.30;;;;;;;27.62;47.85;97133.30;107959;1235;101542;-84
2023/06/29 11:37:39;;;;;;;6.50;5.90;;;;;;;27.62;47.36;97123.64;107996;1235;99910;-83
2023/06/29 11:40:18;;;;;;;6.60;5.90;;;;;;;27.51;47.17;97124.52;107880;1238;97146;-84
2023/06/29 11:42:45;;;;;;;6.40;5.80;;;;;;;27.62;47.03;97126.07;108016;1236;97531;-83
2023/06/29 11:45:13;;;;;;;6.90;5.40;;;;;;;27.72;46.66;97127.01;108031;1235;96761;-81
2023/06/29 11:47:39;;;;;;;6.50;5.30;;;;;;;27.81;46.17;97120.43;108026;1238;97750;-88
2023/06/29 11:50:07;;;;;;;8.70;5.90;;;;;;;27.88;45.91;97113.05;108004;1239;96539;-86
2023/06/29 11:52:35;;;;;;;6.60;5.90;;;;;;;27.82;46.47;97112.98;107971;1246;96568;-87
2023/06/29 11:55:04;;;;;;;5.80;5.30;;;;;;;27.88;46.58;97109.09;107663;1238;97099;-87
2023/06/29 11:57:31;;;;;;;7.00;6.10;;;;;;;27.96;45.93;97102.45;107514;1244;103184;-87
2023/06/29 11:59:58;;;;;;;6.90;6.20;;;;;;;28.05;45.98;97104.02;108140;1238;101238;-90
2023/06/29 12:02:24;;;;;;;6.90;6.20;;;;;;;28.22;45.63;97097.48;109447;1234;96535;-79
2023/06/29 12:04:58;;;;;;;6.90;5.90;;;;;;;28.37;45.13;97094.84;108291;1238;97774;-77
2023/06/29 12:07:41;;;;;;;6.50;5.30;;;;;;;28.31;44.86;97095.17;108213;1235;97149;-78
2023/06/29 12:10:11;;;;;;;5.70;5.20;;;;;;;28.11;45.12;97091.98;108233;1248;101135;-79
2023/06/29 12:12:38;;;;;;;9.80;5.40;;;;;;;28.06;45.14;97089.06;108129;1238;101347;-77
2023/06/29 12:15:19;;;;;;;7.10;5.50;;;;;;;28.11;44.15;97086.66;107521;1244;100084;-77
2023/06/29 12:17:48;;;;;;;5.40;4.70;;;;;;;28.21;43.85;97082.85;107647;1242;96964;-76
2023/06/29 12:20:16;;;;;;;6.10;5.20;;;;;;;28.04;43.49;97081.30;108128;1234;97072;-75
2023/06/29 12:22:43;;;;;;;7.20;5.40;;;;;;;27.57;43.44;97083.75;108058;1246;102533;-76
2023/06/29 12:25:12;;;;;;;5.90;5.30;;;;;;;27.16;43.90;97085.15;107709;1235;101268;-75
2023/06/29 12:27:43;;;;;;;5.90;5.20;;;;;;;27.15;44.31;97080.66;107542;1249;99932;-75
2023/06/29 12:30:14;;;;;;;7.20;5.90;;;;;;;27.30;44.55;97075.66;107543;1249;96917;-75
2023/06/29 12:32:51;;;;;;;6.40;5.80;;;;;;;27.51;44.40;97068.22;107939;1237;97860;-82
2023/06/29 12:35:19;;;;;;;6.00;5.40;;;;;;;27.63;44.37;97064.08;108215;1235;102209;-86
2023/06/29 12:37:45;;;;;;;5.80;5.00;;;;;;;27.73;44.58;97063.75;107923;1247;97389;-84
2023/06/29 12:40:13;;;;;;;6.90;4.70;;;;;;;27.83;44.20;97065.06;107983;1238;96679;-84
2023/06/29 12:42:39;;;;;;;5.90;5.20;;;;;;;27.83;43.18;97056.54;107935;1235;96557;-84
2023/06/29 12:45:06;;;;;;;6.30;5.30;;;;;;;27.80;43.73;97059.13;107959;1248;97494;-84
2023/06/29 12:47:33;;;;;;;5.60;5.10;;;;;;;27.70;44.26;97055.73;108130;1238;96536;-83
2023/06/29 12:50:00;;;;;;;5.50;5.00;;;;;;;27.54;44.19;97053.54;107954;1241;97463;-81
2023/06/29 12:52:28;;;;;;;5.80;5.30;;;;;;;27.57;43.96;97051.65;111059;1235;94985;-84
2023/06/29 12:54:55;;;;;;;6.00;5.00;;;;;;;27.70;43.65;97052.56;111180;1235;94198;-83
2023/06/29 12:57:25;;;;;;;7.80;5.00;;;;;;;27.94;43.54;97044.98;110379;1235;96415;-84
2023/06/29 12:59:59;;;;;;;6.10;4.90;;;;;;;28.15;42.78;97043.17;109803;1238;101652;-83
2023/06/29 13:02:26;;;;;;;5.30;4.80;;;;;;;28.31;42.07;97042.02;108007;1239;99862;-71
2023/06/29 13:04:53;;;;;;;7.10;5.50;;;;;;;28.25;41.95;97045.44;108210;1238;97351;-71
2023/06/29 13:07:22;;;;;;;6.10;4.60;;;;;;;28.18;42.43;97038.48;108225;1238;96646;-70
2023/06/29 13:09:51;;;;;;;5.50;5.00;;;;;;;28.22;42.53;97039.67;108113;1236;101256;-71
2023/06/29 13:12:19;;;;;;;6.80;5.10;;;;;;;28.00;42.53;97038.05;108116;1236;101188;-71
2023/06/29 13:14:48;;;;;;;7.40;4.90;;;;;;;27.53;42.60;97033.63;107642;1244;98914;-71
2023/06/29 13:17:14;;;;;;;4.70;4.30;;;;;;;27.38;42.69;97031.90;107949;1238;97198;-72
2023/06/29 13:19:46;;;;;;;5.70;4.40;;;;;;;27.52;42.63;97029.77;107898;1237;97440;-71
2023/06/29 13:22:12;;;;;;;5.40;4.90;;;;;;;27.70;42.49;97031.20;107812;1238;102045;-72
2023/06/29 13:24:39;;;;;;;4.60;4.20;;;;;;;27.76;42.17;97028.34;107744;1235;97809;-71
2023/06/29 13:27:06;;;;;;;5.10;4.10;;;;;;;27.93;42.13;97026.31;107832;1238;96698;-70
2023/06/29 13:29:35;;;;;;;4.90;4.50;;;;;;;28.01;41.62;97027.34;107801;1246;96538;-73
2023/06/29 13:32:02;;;;;;;4.80;4.40;;;;;;;28.00;42.02;97025.58;108072;1238;96613;-71
2023/06/29 13:34:29;;;;;;;4.60;4.20;;;;;;;27.93;41.17;97024.72;107743;1243;97784;-72
2023/06/29 13:36:55;;;;;;;6.10;4.40;;;;;;;27.91;41.21;97022.50;108053;1234;96497;-73
2023/06/29 13:39:22;;;;;;;5.00;4.40;;;;;;;27.93;41.44;97022.44;111063;1236;96848;-72
2023/06/29 13:41:49;;;;;;;6.10;4.40;;;;;;;28.07;41.10;97023.10;109417;1235;96428;-71
2023/06/29 13:44:16;;;;;;;4.50;4.20;;;;;;;28.24;40.79;97018.89;108529;1239;97792;-71
2023/06/29 13:46:45;;;;;;;4.50;4.10;;;;;;;28.43;40.35;97017.74;107884;1241;97792;-74
2023/06/29 13:49:12;;;;;;;6.10;4.10;;;;;;;28.53;39.78;97014.25;108294;1235;98813;-77
2023/06/29 13:51:38;;;;;;;3.90;3.60;;;;;;;28.42;39.49;97011.60;107599;1242;97155;-73
2023/06/29 13:54:06;;;;;;;4.40;4.00;;;;;;;28.45;39.47;97012.04;107701;1242;96826;-71
2023/06/29 13:56:36;;;;;;;5.50;4.60;;;;;;;28.52;39.33;97014.70;107604;1238;96632;-72
2023/06/29 13:59:08;;;;;;;5.10;4.60;;;;;;;28.59;39.14;97013.81;107847;1238;100231;-76
2023/06/29 14:01:39;;;;;;;5.00;4.60;;;;;;;28.64;38.87;97008.02;107997;1242;99917;-89
2023/06/29 14:04:08;;;;;;;4.10;3.70;;;;;;;28.39;39.05;97007.05;107595;1238;96766;-89
2023/06/29 14:06:36;;;;;;;6.10;4.10;;;;;;;28.16;39.45;97008.73;107731;1238;96672;-87
2023/06/29 14:09:05;;;;;;;5.30;4.20;;;;;;;28.14;39.25;97005.52;107466;1242;102101;-89
2023/06/29 14:11:32;;;;;;;6.20;3.70;;;;;;;27.96;39.15;97004.65;107166;1247;101017;-87
2023/06/29 14:13:59;;;;;;;4.00;3.60;;;;;;;27.88;39.39;97002.73;107643;1238;97882;-88
2023/06/29 14:16:27;;;;;;;4.60;3.80;;;;;;;27.77;39.33;97000.35;107254;1248;96638;-88
2023/06/29 14:18:54;;;;;;;4.70;3.80;;;;;;;27.61;39.24;96997.86;107323;1247;96536;-84
2023/06/29 14:21:21;;;;;;;5.70;4.00;;;;;;;27.56;39.43;96993.08;107068;1248;96877;-87
2023/06/29 14:23:48;;;;;;;4.80;3.70;;;;;;;27.54;39.10;96986.86;107025;1241;96641;-85
2023/06/29 14:26:16;;;;;;;4.00;3.60;;;;;;;27.53;38.68;96993.38;107091;1254;96677;-86
2023/06/29 14:28:42;;;;;;;3.60;3.20;;;;;;;27.42;38.79;96992.99;106723;1245;97898;-86
2023/06/29 14:31:09;;;;;;;4.50;3.80;;;;;;;27.20;39.45;96987.79;109092;1241;96487;-78